Time;durP1;ratioP1;P1;durP2;ratioP2;P2;SDS_P1;SDS_P2;PMS_P1;PMS_P2;Temp;Humidity;BMP_temperature;BMP_pressure;BME280_temperature;BME280_humidity;BME280_pressure;Samples;Min_cycle;Max_cycle;Signal;HPM_P1;HPM_P2
2023/05/05 00:01:43;;;;;;;3.27;2.40;;;21.80;58.60;;;;;;5069523;28;20210;-44
2023/05/05 00:04:11;;;;;;;3.10;2.50;;;21.90;58.60;;;;;;5067445;28;20224;-44
2023/05/05 00:06:41;;;;;;;3.27;2.63;;;21.90;58.70;;;;;;5068527;28;20280;-44
2023/05/05 00:09:12;;;;;;;2.73;2.53;;;21.90;58.70;;;;;;5069903;28;20202;-44
2023/05/05 00:11:45;;;;;;;2.90;2.70;;;21.90;58.70;;;;;;5064155;28;20197;-44
2023/05/05 00:14:17;;;;;;;3.20;2.90;;;21.80;58.60;;;;;;5070072;28;20584;-44
2023/05/05 00:16:49;;;;;;;3.40;2.87;;;21.80;58.60;;;;;;5072268;28;20782;-44
2023/05/05 00:19:17;;;;;;;2.90;2.67;;;21.80;58.60;;;;;;5073291;28;20205;-45
2023/05/05 00:21:47;;;;;;;3.33;2.80;;;21.80;58.70;;;;;;5072173;28;20221;-44
2023/05/05 00:24:18;;;;;;;2.90;2.60;;;21.80;58.70;;;;;;5056405;28;20194;-44
2023/05/05 00:26:48;;;;;;;2.93;2.73;;;21.80;58.70;;;;;;5074992;28;20247;-44
2023/05/05 00:29:24;;;;;;;2.93;2.63;;;21.80;58.60;;;;;;5075592;28;20624;-44
2023/05/05 00:31:55;;;;;;;3.27;2.60;;;21.80;58.70;;;;;;5069283;28;20212;-44
2023/05/05 00:34:26;;;;;;;2.77;2.57;;;21.80;58.70;;;;;;5074640;28;20202;-44
2023/05/05 00:36:57;;;;;;;2.63;2.43;;;21.80;58.70;;;;;;5063107;28;20263;-44
2023/05/05 00:39:27;;;;;;;2.93;2.63;;;21.80;58.80;;;;;;5055299;28;20198;-44
2023/05/05 00:41:58;;;;;;;2.70;2.50;;;21.80;58.70;;;;;;5070230;28;20568;-44
2023/05/05 00:44:43;;;;;;;2.93;2.57;;;21.80;58.70;;;;;;5069456;28;20198;-44
2023/05/05 00:47:17;;;;;;;4.10;2.67;;;21.70;58.70;;;;;;5054080;28;20213;-44
2023/05/05 00:49:47;;;;;;;3.10;2.80;;;21.80;58.70;;;;;;5070763;28;20177;-44
2023/05/05 00:52:18;;;;;;;2.67;2.47;;;21.80;58.70;;;;;;5020478;28;20576;-44
2023/05/05 00:54:48;;;;;;;3.10;2.80;;;21.80;58.70;;;;;;5045086;28;20194;-44
2023/05/05 00:57:17;;;;;;;3.70;2.47;;;21.80;58.70;;;;;;5013430;28;20277;-44
2023/05/05 00:59:51;;;;;;;2.80;2.60;;;21.80;58.70;;;;;;5050004;28;20222;-44
2023/05/05 01:02:20;;;;;;;2.57;2.37;;;21.70;58.70;;;;;;5050351;28;20523;-44
2023/05/05 01:04:57;;;;;;;3.90;2.80;;;21.70;58.60;;;;;;5051216;28;20198;-44
2023/05/05 01:07:49;;;;;;;4.80;2.77;;;21.70;58.60;;;;;;5050649;28;20209;-43
2023/05/05 01:11:03;;;;;;;4.07;3.00;;;21.70;58.70;;;;;;5053359;28;20260;-44
2023/05/05 01:14:03;;;;;;;2.60;2.40;;;21.70;58.60;;;;;;4989077;28;20216;-44
2023/05/05 01:16:32;;;;;;;3.57;2.83;;;21.70;58.80;;;;;;4976312;28;20223;-44
2023/05/05 01:19:39;;;;;;;3.03;2.63;;;21.60;58.80;;;;;;4977786;28;20209;-44
2023/05/05 01:22:13;;;;;;;3.80;2.80;;;21.70;58.80;;;;;;4987339;28;20298;-44
2023/05/05 01:25:05;;;;;;;3.30;3.00;;;21.70;58.80;;;;;;4975536;28;20686;-44
2023/05/05 01:27:58;;;;;;;3.03;2.37;;;21.60;58.80;;;;;;5006296;28;20210;-44
2023/05/05 01:31:03;;;;;;;2.53;2.33;;;21.70;58.80;;;;;;5049976;28;20200;-44
2023/05/05 01:33:47;;;;;;;2.63;2.43;;;21.60;58.80;;;;;;5048098;28;20229;-44
2023/05/05 01:36:27;;;;;;;3.40;3.10;;;21.60;58.80;;;;;;5042262;28;20198;-44
2023/05/05 01:39:12;;;;;;;3.30;3.00;;;21.60;58.80;;;;;;5034176;28;20206;-44
2023/05/05 01:41:45;;;;;;;2.70;2.50;;;21.60;58.80;;;;;;5035090;28;20201;-44
2023/05/05 01:44:18;;;;;;;4.07;3.07;;;21.60;58.80;;;;;;5031485;28;20550;-44
2023/05/05 01:46:52;;;;;;;3.37;3.07;;;21.60;59.30;;;;;;5053030;28;20191;-44
2023/05/05 01:49:26;;;;;;;3.00;2.80;;;21.60;58.70;;;;;;5050007;28;20202;-44
2023/05/05 01:51:58;;;;;;;3.40;2.97;;;21.60;58.70;;;;;;5056658;28;20702;-44
2023/05/05 01:54:28;;;;;;;3.27;2.97;;;21.60;58.70;;;;;;5066370;28;20548;-44
2023/05/05 01:57:02;;;;;;;3.40;3.10;;;21.60;58.80;;;;;;5074914;28;20217;-44
2023/05/05 01:59:33;;;;;;;3.57;2.83;;;21.60;58.70;;;;;;5072990;28;20302;-44
2023/05/05 02:02:21;;;;;;;4.67;3.00;;;21.60;58.70;;;;;;5069405;28;20241;-44
2023/05/05 02:04:56;;;;;;;5.27;3.00;;;21.60;58.80;;;;;;5069410;28;20202;-44
2023/05/05 02:07:33;;;;;;;3.10;2.80;;;21.60;58.80;;;;;;5076403;28;20270;-44
2023/05/05 02:10:03;;;;;;;3.33;3.03;;;21.60;58.80;;;;;;5090363;28;20201;-44
2023/05/05 02:12:50;;;;;;;3.37;3.07;;;21.50;59.30;;;;;;5061493;28;20619;-44
2023/05/05 02:15:22;;;;;;;3.03;2.73;;;21.60;58.70;;;;;;5063112;28;20798;-44
2023/05/05 02:17:52;;;;;;;3.00;2.70;;;21.60;58.70;;;;;;5066994;28;20640;-44
2023/05/05 02:20:24;;;;;;;3.00;2.70;;;21.50;58.70;;;;;;5085301;28;20772;-44
2023/05/05 02:23:07;;;;;;;3.17;2.73;;;21.50;58.70;;;;;;5071293;28;20300;-44
2023/05/05 02:25:44;;;;;;;2.90;2.70;;;21.50;58.60;;;;;;5088223;28;20778;-44
2023/05/05 02:28:30;;;;;;;3.33;2.70;;;21.50;58.60;;;;;;5090431;28;20197;-44
2023/05/05 02:31:03;;;;;;;3.07;2.60;;;21.50;58.60;;;;;;5093979;28;20612;-44
2023/05/05 02:33:36;;;;;;;3.17;2.87;;;21.50;58.60;;;;;;5069982;28;20220;-44
2023/05/05 02:36:19;;;;;;;3.13;2.80;;;21.50;58.60;;;;;;5078699;28;20215;-44
2023/05/05 02:38:53;;;;;;;4.57;2.47;;;21.50;58.60;;;;;;5071473;28;20189;-44
2023/05/05 02:41:26;;;;;;;3.17;2.87;;;21.50;58.60;;;;;;5102888;28;20535;-44
2023/05/05 02:43:58;;;;;;;2.77;2.57;;;21.50;58.60;;;;;;5074503;28;20361;-44
2023/05/05 02:46:30;;;;;;;3.30;3.00;;;21.50;58.60;;;;;;5069179;28;20367;-45
2023/05/05 02:48:59;;;;;;;2.90;2.70;;;21.50;58.60;;;;;;5089694;28;20184;-44
2023/05/05 02:51:32;;;;;;;3.63;3.00;;;21.50;58.60;;;;;;5091394;28;20236;-44
2023/05/05 02:54:15;;;;;;;2.73;2.53;;;21.50;58.60;;;;;;5089826;28;20232;-44
2023/05/05 02:56:50;;;;;;;3.70;3.13;;;21.50;58.50;;;;;;5086195;28;20289;-44
2023/05/05 02:59:37;;;;;;;3.70;2.60;;;21.50;58.50;;;;;;5066725;28;20224;-44
2023/05/05 03:02:50;;;;;;;3.73;2.53;;;21.50;58.50;;;;;;5087137;28;20677;-44
2023/05/05 03:05:22;;;;;;;3.03;2.73;;;21.50;58.50;;;;;;5084589;28;20217;-44
2023/05/05 03:07:55;;;;;;;4.20;2.93;;;21.40;58.50;;;;;;5085979;28;20247;-44
2023/05/05 03:10:36;;;;;;;2.87;2.63;;;21.50;58.60;;;;;;5090818;28;20515;-44
2023/05/05 03:13:08;;;;;;;2.70;2.50;;;21.40;58.40;;;;;;5083859;28;20562;-44
2023/05/05 03:15:49;;;;;;;3.03;2.73;;;21.40;58.40;;;;;;5076735;28;20192;-44
2023/05/05 03:18:24;;;;;;;3.00;2.70;;;21.40;58.40;;;;;;5107844;28;20199;-44
2023/05/05 03:20:54;;;;;;;3.17;2.87;;;21.40;58.40;;;;;;5087805;28;20223;-44
2023/05/05 03:23:22;;;;;;;2.80;2.60;;;21.40;58.40;;;;;;5092710;28;20213;-44
2023/05/05 03:25:51;;;;;;;3.10;2.80;;;21.40;58.40;;;;;;5091941;28;20193;-44
2023/05/05 03:28:22;;;;;;;2.70;2.50;;;21.40;58.40;;;;;;5094709;28;20221;-44
2023/05/05 03:30:50;;;;;;;3.00;2.80;;;21.40;58.40;;;;;;5095757;28;20652;-44
2023/05/05 03:33:20;;;;;;;3.97;2.60;;;21.40;58.30;;;;;;5087050;28;20213;-44
2023/05/05 03:35:50;;;;;;;3.77;2.53;;;21.40;58.30;;;;;;5084135;28;20212;-44
2023/05/05 03:38:21;;;;;;;2.30;2.20;;;21.40;58.30;;;;;;5084676;28;20193;-44
2023/05/05 03:40:53;;;;;;;3.10;2.80;;;21.40;58.30;;;;;;5101483;28;20196;-44
2023/05/05 03:43:23;;;;;;;3.43;2.80;;;21.40;58.30;;;;;;5092437;28;20285;-44
2023/05/05 03:45:52;;;;;;;2.50;2.30;;;21.40;58.30;;;;;;5093941;28;20205;-44
2023/05/05 03:48:22;;;;;;;2.60;2.40;;;21.30;58.30;;;;;;5095082;28;20625;-44
2023/05/05 03:50:54;;;;;;;3.03;2.67;;;21.40;58.30;;;;;;5110850;28;20282;-44
2023/05/05 03:53:29;;;;;;;3.00;2.30;;;21.30;58.30;;;;;;5099868;28;20200;-44
2023/05/05 03:56:04;;;;;;;3.13;2.70;;;21.40;58.30;;;;;;5104385;28;20205;-45
2023/05/05 03:58:39;;;;;;;3.40;2.50;;;21.30;58.30;;;;;;5088366;28;20205;-44
2023/05/05 04:01:11;;;;;;;2.80;2.50;;;21.30;58.30;;;;;;5101653;28;20254;-44
2023/05/05 04:03:39;;;;;;;2.90;2.60;;;21.30;58.30;;;;;;5098993;28;20254;-44
2023/05/05 04:06:16;;;;;;;2.80;2.50;;;21.30;58.30;;;;;;5096741;28;20273;-44
2023/05/05 04:08:53;;;;;;;2.70;2.50;;;21.30;58.20;;;;;;5098452;28;20216;-44
2023/05/05 04:11:21;;;;;;;3.50;2.80;;;21.30;58.30;;;;;;5100501;28;20193;-44
2023/05/05 04:13:51;;;;;;;3.00;2.43;;;21.30;58.30;;;;;;5073523;28;20205;-44
2023/05/05 04:16:23;;;;;;;3.03;2.70;;;21.20;58.30;;;;;;5071665;28;20212;-44
2023/05/05 04:18:55;;;;;;;4.20;2.80;;;21.30;58.30;;;;;;5096738;28;20201;-45
2023/05/05 04:21:25;;;;;;;4.53;2.97;;;21.20;58.30;;;;;;5093357;28;20228;-44
2023/05/05 04:23:57;;;;;;;5.37;2.77;;;21.30;58.40;;;;;;5089715;28;20255;-44
2023/05/05 04:26:30;;;;;;;4.07;2.70;;;21.30;58.40;;;;;;5087268;28;20193;-45
2023/05/05 04:29:05;;;;;;;3.13;2.77;;;21.30;58.40;;;;;;5098412;28;20193;-45
2023/05/05 04:31:37;;;;;;;3.23;2.83;;;21.20;58.30;;;;;;5096365;28;20518;-45
2023/05/05 04:34:08;;;;;;;2.90;2.70;;;21.30;58.30;;;;;;5073109;28;20217;-45
2023/05/05 04:36:39;;;;;;;3.23;2.93;;;21.20;58.30;;;;;;5099358;28;20220;-45
2023/05/05 04:39:07;;;;;;;5.40;2.60;;;21.20;58.40;;;;;;5079600;28;20216;-45
2023/05/05 04:41:37;;;;;;;2.90;2.70;;;21.20;58.30;;;;;;5096570;28;20258;-44
2023/05/05 04:44:06;;;;;;;2.90;2.70;;;21.20;58.30;;;;;;5088857;28;20255;-44
2023/05/05 04:46:34;;;;;;;4.13;3.00;;;21.20;58.30;;;;;;5080316;28;20203;-45
2023/05/05 04:49:03;;;;;;;3.67;3.00;;;21.20;58.30;;;;;;5093796;28;20203;-45
2023/05/05 04:51:34;;;;;;;2.87;2.30;;;21.20;58.30;;;;;;5063238;28;20692;-44
2023/05/05 04:54:06;;;;;;;2.60;2.40;;;21.20;58.30;;;;;;5049280;28;20198;-45
2023/05/05 04:56:37;;;;;;;2.90;2.70;;;21.20;58.30;;;;;;5050593;28;20214;-45
2023/05/05 04:59:08;;;;;;;4.00;3.37;;;21.20;58.20;;;;;;5052500;28;20202;-44
2023/05/05 05:01:40;;;;;;;4.07;2.83;;;21.20;58.30;;;;;;5053065;28;20194;-45
2023/05/05 05:04:09;;;;;;;5.03;3.00;;;21.20;58.70;;;;;;5044906;28;20218;-45
2023/05/05 05:06:52;;;;;;;5.37;2.60;;;21.20;58.80;;;;;;5038237;28;20218;-44
2023/05/05 05:09:25;;;;;;;8.33;2.97;;;21.20;58.70;;;;;;5053371;28;20214;-44
2023/05/05 05:11:59;;;;;;;4.83;3.57;;;21.20;58.70;;;;;;5060291;28;20198;-45
2023/05/05 05:14:38;;;;;;;4.80;3.37;;;21.20;58.70;;;;;;5054697;28;20670;-45
2023/05/05 05:17:10;;;;;;;5.43;2.63;;;21.20;58.60;;;;;;5034527;28;20199;-44
2023/05/05 05:19:42;;;;;;;5.23;2.97;;;21.20;58.60;;;;;;5053654;28;20229;-44
2023/05/05 05:22:12;;;;;;;5.23;3.10;;;21.20;58.50;;;;;;5048064;28;20222;-44
2023/05/05 05:24:43;;;;;;;3.50;3.00;;;21.20;58.50;;;;;;5051471;28;20276;-44
2023/05/05 05:27:14;;;;;;;6.57;3.33;;;21.20;58.40;;;;;;5068406;28;20190;-45
2023/05/05 05:29:42;;;;;;;4.47;3.47;;;21.10;58.40;;;;;;5034827;28;20191;-45
2023/05/05 05:32:11;;;;;;;4.83;3.73;;;21.10;58.40;;;;;;5044203;28;20215;-45
2023/05/05 05:34:43;;;;;;;12.17;3.87;;;21.10;58.60;;;;;;5056753;28;20598;-44
2023/05/05 05:37:14;;;;;;;8.77;3.70;;;21.10;58.80;;;;;;5051550;28;20194;-44
2023/05/05 05:39:54;;;;;;;9.60;3.57;;;21.20;59.00;;;;;;5054425;28;20623;-44
2023/05/05 05:42:24;;;;;;;11.43;4.17;;;21.20;59.10;;;;;;5052704;28;20202;-43
2023/05/05 05:45:00;;;;;;;11.00;4.77;;;21.20;59.10;;;;;;5051085;28;20224;-43
2023/05/05 05:47:37;;;;;;;12.70;4.90;;;21.20;59.70;;;;;;5036982;28;20217;-44
2023/05/05 05:50:08;;;;;;;15.47;4.87;;;21.10;58.90;;;;;;5061243;28;20205;-43
2023/05/05 05:52:39;;;;;;;16.67;5.10;;;21.10;58.90;;;;;;5058690;28;20494;-45
2023/05/05 05:55:15;;;;;;;13.63;4.70;;;21.10;58.80;;;;;;5056281;28;20251;-44
2023/05/05 05:57:47;;;;;;;14.33;5.33;;;21.10;58.80;;;;;;5050359;28;20214;-44
2023/05/05 06:00:19;;;;;;;14.50;4.90;;;21.10;58.80;;;;;;5063505;28;20209;-44
2023/05/05 06:03:01;;;;;;;14.47;4.97;;;21.10;58.70;;;;;;5059396;28;20253;-44
2023/05/05 06:05:32;;;;;;;7.87;3.93;;;21.10;58.80;;;;;;5063640;28;20656;-43
2023/05/05 06:08:03;;;;;;;8.40;4.23;;;21.10;58.70;;;;;;5054793;28;20205;-44
2023/05/05 06:10:33;;;;;;;7.50;3.80;;;21.10;58.70;;;;;;5064431;28;20209;-44
2023/05/05 06:13:04;;;;;;;7.10;4.23;;;21.10;58.70;;;;;;5058435;28;20636;-44
2023/05/05 06:15:36;;;;;;;9.80;4.10;;;21.10;58.60;;;;;;5058696;28;20600;-44
2023/05/05 06:18:06;;;;;;;7.40;3.67;;;21.10;58.60;;;;;;5061418;28;20217;-44
2023/05/05 06:20:38;;;;;;;5.90;4.10;;;21.10;58.60;;;;;;5061542;28;20271;-44
2023/05/05 06:23:10;;;;;;;10.67;4.13;;;21.10;58.80;;;;;;5064147;28;20245;-44
2023/05/05 06:25:40;;;;;;;5.40;3.87;;;21.10;58.60;;;;;;5061715;28;20205;-44
2023/05/05 06:28:11;;;;;;;8.97;4.00;;;21.10;58.60;;;;;;5060493;28;20193;-44
2023/05/05 06:30:42;;;;;;;8.87;4.20;;;21.10;58.60;;;;;;5060927;28;20194;-44
2023/05/05 06:33:13;;;;;;;6.47;3.50;;;21.10;58.50;;;;;;5048765;28;20222;-44
2023/05/05 06:35:46;;;;;;;8.17;3.60;;;21.00;58.50;;;;;;5055918;28;20198;-44
2023/05/05 06:38:15;;;;;;;5.07;3.63;;;21.10;58.50;;;;;;5065720;28;20213;-44
2023/05/05 06:40:48;;;;;;;7.17;3.57;;;21.10;58.50;;;;;;5047451;28;20193;-44
2023/05/05 06:43:30;;;;;;;6.33;3.63;;;21.10;58.50;;;;;;5045415;28;20295;-44
2023/05/05 06:46:02;;;;;;;6.97;3.63;;;21.00;58.50;;;;;;5054202;28;20214;-44
2023/05/05 06:48:33;;;;;;;5.33;3.37;;;21.10;58.60;;;;;;5064149;28;20208;-44
2023/05/05 06:51:06;;;;;;;4.53;3.57;;;21.10;58.50;;;;;;5071927;28;20686;-44
2023/05/05 06:53:35;;;;;;;5.43;3.80;;;21.10;58.50;;;;;;5060531;28;20203;-44
2023/05/05 06:56:07;;;;;;;5.37;3.23;;;21.10;58.50;;;;;;5070141;28;20663;-44
2023/05/05 06:58:36;;;;;;;5.17;3.53;;;21.10;58.50;;;;;;5085194;28;20208;-44
2023/05/05 07:01:07;;;;;;;5.27;3.47;;;21.10;58.60;;;;;;5058691;28;20205;-44
2023/05/05 07:03:37;;;;;;;3.47;3.00;;;21.10;58.50;;;;;;5081530;28;20225;-44
2023/05/05 07:06:10;;;;;;;5.67;3.40;;;21.10;58.50;;;;;;5080485;28;20270;-44
2023/05/05 07:08:39;;;;;;;4.37;3.47;;;21.10;58.50;;;;;;5079247;28;20584;-44
2023/05/05 07:11:11;;;;;;;4.40;3.20;;;21.10;58.50;;;;;;5081936;28;20197;-44
2023/05/05 07:13:40;;;;;;;6.00;3.37;;;21.10;58.60;;;;;;5061238;28;20636;-44
2023/05/05 07:16:10;;;;;;;4.10;3.20;;;21.10;58.60;;;;;;5069401;28;20214;-44
2023/05/05 07:18:46;;;;;;;4.23;3.50;;;21.10;58.60;;;;;;5077940;28;20201;-44
2023/05/05 07:21:17;;;;;;;7.83;3.60;;;21.10;58.70;;;;;;5071294;28;20219;-44
2023/05/05 07:23:47;;;;;;;9.87;3.93;;;21.10;58.80;;;;;;5077031;28;20220;-44
2023/05/05 07:26:17;;;;;;;12.90;4.60;;;21.10;58.90;;;;;;5070518;28;20807;-44
2023/05/05 07:28:50;;;;;;;9.40;4.60;;;21.10;58.90;;;;;;5066709;28;20186;-44
2023/05/05 07:31:24;;;;;;;9.53;4.57;;;21.10;58.80;;;;;;5070997;28;20377;-44
2023/05/05 07:33:51;;;;;;;15.47;5.03;;;21.10;58.80;;;;;;5043308;28;20202;-44
2023/05/05 07:36:22;;;;;;;22.53;4.87;;;21.20;59.50;;;;;;5065759;28;20576;-44
2023/05/05 07:38:52;;;;;;;8.90;4.77;;;21.10;58.80;;;;;;5065530;28;20559;-44
2023/05/05 07:41:22;;;;;;;10.00;4.90;;;21.10;58.80;;;;;;5067466;28;20208;-44
2023/05/05 07:43:49;;;;;;;11.60;4.50;;;21.20;58.90;;;;;;5062877;28;20294;-44
2023/05/05 07:46:18;;;;;;;9.83;4.30;;;21.20;58.90;;;;;;5068259;28;20206;-44
2023/05/05 07:48:47;;;;;;;9.00;4.00;;;21.20;58.90;;;;;;5037063;28;20259;-44
2023/05/05 07:51:18;;;;;;;6.97;4.33;;;21.20;58.90;;;;;;5069160;28;20279;-44
2023/05/05 07:53:47;;;;;;;8.47;3.90;;;21.20;58.90;;;;;;5064937;28;20194;-44
2023/05/05 07:56:18;;;;;;;11.10;4.70;;;21.10;58.80;;;;;;5042244;28;20217;-44
2023/05/05 07:58:50;;;;;;;8.50;4.00;;;21.20;58.90;;;;;;5055761;28;20213;-43
2023/05/05 08:01:21;;;;;;;9.73;4.77;;;21.20;58.90;;;;;;5068013;28;20270;-43
2023/05/05 08:03:50;;;;;;;7.20;4.10;;;21.20;58.90;;;;;;5022374;28;20672;-43
2023/05/05 08:06:20;;;;;;;7.30;4.07;;;21.20;58.90;;;;;;5067452;28;20201;-44
2023/05/05 08:08:52;;;;;;;7.47;3.90;;;21.20;59.00;;;;;;5064366;28;20210;-44
2023/05/05 08:11:24;;;;;;;9.13;4.00;;;21.20;59.00;;;;;;5071702;28;20198;-44
2023/05/05 08:13:55;;;;;;;5.73;3.43;;;21.20;59.00;;;;;;5060145;28;20360;-44
2023/05/05 08:16:25;;;;;;;6.17;3.67;;;21.30;59.60;;;;;;5067788;28;20198;-44
2023/05/05 08:18:55;;;;;;;6.73;3.73;;;21.20;59.00;;;;;;5066650;28;20881;-44
2023/05/05 08:21:26;;;;;;;6.00;3.63;;;21.30;59.00;;;;;;5068784;28;20635;-44
2023/05/05 08:23:55;;;;;;;6.77;3.73;;;21.30;59.00;;;;;;5069930;28;20271;-44
2023/05/05 08:26:22;;;;;;;9.13;3.93;;;21.30;59.00;;;;;;5061570;28;20687;-44
2023/05/05 08:28:59;;;;;;;4.83;3.17;;;21.30;59.00;;;;;;5048618;28;20197;-44
2023/05/05 08:31:38;;;;;;;5.77;3.20;;;21.30;59.00;;;;;;5069528;28;20654;-43
2023/05/05 08:34:08;;;;;;;4.23;3.50;;;21.30;59.00;;;;;;5044303;28;20217;-43
2023/05/05 08:36:39;;;;;;;4.93;3.20;;;21.30;58.90;;;;;;5051279;28;20212;-44
2023/05/05 08:39:08;;;;;;;5.63;3.50;;;21.30;58.90;;;;;;5069808;28;20281;-44
2023/05/05 08:41:39;;;;;;;7.93;3.60;;;21.30;58.90;;;;;;5069213;28;20201;-44
2023/05/05 08:44:09;;;;;;;5.87;3.17;;;21.30;58.90;;;;;;5064280;28;20256;-43
2023/05/05 08:46:41;;;;;;;4.83;3.07;;;21.30;59.00;;;;;;5041725;28;20221;-44
2023/05/05 08:49:15;;;;;;;6.50;3.30;;;21.40;58.90;;;;;;5067179;28;20201;-44
2023/05/05 08:51:51;;;;;;;5.53;3.20;;;21.40;59.00;;;;;;5068561;28;20233;-44
2023/05/05 08:54:26;;;;;;;7.57;3.20;;;21.40;59.00;;;;;;5060276;28;20212;-44
2023/05/05 08:57:00;;;;;;;6.40;3.10;;;21.40;59.00;;;;;;5035563;28;20209;-43
2023/05/05 08:59:32;;;;;;;4.13;3.03;;;21.40;59.20;;;;;;5069128;28;20358;-43
2023/05/05 09:02:06;;;;;;;7.47;3.47;;;21.40;59.60;;;;;;5068835;28;20197;-44
2023/05/05 09:05:03;;;;;;;5.43;3.20;;;21.40;60.10;;;;;;5049129;28;20231;-44
2023/05/05 09:07:35;;;;;;;5.27;3.00;;;21.40;60.40;;;;;;5065904;28;20220;-43
2023/05/05 09:10:07;;;;;;;8.30;3.57;;;21.40;61.10;;;;;;5070245;28;20277;-43
2023/05/05 09:12:40;;;;;;;6.07;3.33;;;21.40;61.90;;;;;;5048669;28;20198;-44
2023/05/05 09:15:16;;;;;;;6.17;3.90;;;21.40;62.60;;;;;;5073313;28;20638;-44
2023/05/05 09:17:46;;;;;;;6.57;3.60;;;21.50;62.60;;;;;;5050526;28;20208;-43
2023/05/05 09:20:17;;;;;;;4.93;3.00;;;21.50;62.80;;;;;;5053780;28;20595;-44
2023/05/05 09:22:49;;;;;;;5.73;3.47;;;21.50;63.80;;;;;;5076637;28;20197;-43
2023/05/05 09:25:18;;;;;;;6.00;3.53;;;21.50;63.90;;;;;;5068085;28;20206;-43
2023/05/05 09:27:49;;;;;;;4.40;3.07;;;21.50;64.50;;;;;;5068099;28;20197;-43
2023/05/05 09:30:25;;;;;;;5.50;3.27;;;21.50;63.90;;;;;;5072530;28;20627;-44
2023/05/05 09:33:03;;;;;;;4.43;2.80;;;21.50;64.40;;;;;;5068897;28;20209;-44
2023/05/05 09:35:55;;;;;;;4.80;2.80;;;21.50;65.30;;;;;;5056486;28;20198;-43
2023/05/05 09:38:27;;;;;;;5.33;2.93;;;21.50;65.00;;;;;;5051886;28;20213;-43
2023/05/05 09:40:57;;;;;;;4.70;3.00;;;21.50;65.70;;;;;;5080568;28;20651;-43
2023/05/05 09:43:29;;;;;;;4.33;2.90;;;21.60;66.90;;;;;;5073366;28;20209;-43
2023/05/05 09:46:06;;;;;;;4.57;3.00;;;21.50;66.30;;;;;;5067303;28;20210;-44
2023/05/05 09:48:39;;;;;;;3.73;2.77;;;21.60;66.80;;;;;;5043548;28;20197;-44
2023/05/05 09:51:12;;;;;;;3.97;2.63;;;21.60;66.50;;;;;;5071574;28;20232;-44
2023/05/05 09:53:44;;;;;;;4.30;3.10;;;21.60;67.10;;;;;;5070251;28;20190;-44
2023/05/05 09:56:15;;;;;;;4.43;2.70;;;21.60;66.40;;;;;;5068232;28;20566;-44
2023/05/05 09:58:45;;;;;;;3.63;2.70;;;21.60;66.80;;;;;;5060939;28;20251;-44
2023/05/05 10:01:25;;;;;;;2.53;2.33;;;21.60;67.60;;;;;;5066426;28;20186;-44
2023/05/05 10:03:54;;;;;;;3.80;2.47;;;21.60;67.80;;;;;;5068431;28;20821;-44
2023/05/05 10:06:40;;;;;;;3.30;2.27;;;21.60;67.90;;;;;;5053829;28;20592;-44
2023/05/05 10:09:11;;;;;;;4.77;2.70;;;21.70;68.10;;;;;;5037278;28;20745;-44
2023/05/05 10:11:41;;;;;;;3.40;2.37;;;21.70;68.10;;;;;;5067774;28;20197;-44
2023/05/05 10:14:17;;;;;;;2.87;2.17;;;21.70;68.30;;;;;;5038651;28;20201;-44
2023/05/05 10:16:54;;;;;;;3.50;2.20;;;21.70;68.20;;;;;;5075814;28;20197;-43
2023/05/05 10:19:31;;;;;;;3.83;2.40;;;21.70;67.40;;;;;;5057608;28;20207;-44
2023/05/05 10:22:16;;;;;;;2.83;2.20;;;21.70;67.00;;;;;;5065083;28;20217;-43
2023/05/05 10:24:56;;;;;;;2.30;2.00;;;21.70;66.50;;;;;;5059635;28;20657;-44
2023/05/05 10:27:30;;;;;;;3.33;2.17;;;21.70;66.30;;;;;;5072651;28;20809;-44
2023/05/05 10:30:07;;;;;;;3.30;2.40;;;21.70;66.20;;;;;;5054053;28;20212;-44
2023/05/05 10:33:08;;;;;;;2.83;2.10;;;21.70;65.10;;;;;;5036252;28;20200;-44
2023/05/05 10:36:01;;;;;;;2.17;1.93;;;21.80;64.80;;;;;;5056165;28;20800;-44
2023/05/05 10:38:30;;;;;;;2.40;2.20;;;21.80;65.60;;;;;;5050793;28;20220;-44
2023/05/05 10:41:11;;;;;;;2.70;1.90;;;21.80;65.50;;;;;;5055541;28;20201;-43
2023/05/05 10:44:05;;;;;;;2.97;2.23;;;21.70;65.80;;;;;;5057047;28;20209;-44
2023/05/05 10:46:37;;;;;;;2.00;1.80;;;21.80;65.20;;;;;;5095746;28;20198;-44
2023/05/05 10:49:40;;;;;;;3.93;2.03;;;21.80;64.50;;;;;;5068896;28;20204;-44
2023/05/05 10:52:55;;;;;;;4.17;1.87;;;21.80;64.10;;;;;;5067261;28;20241;-44
2023/05/05 10:56:14;;;;;;;1.70;1.57;;;21.80;63.90;;;;;;5064396;28;20515;-44
2023/05/05 10:58:49;;;;;;;2.67;1.50;;;21.80;63.80;;;;;;5045742;28;20569;-44
2023/05/05 11:01:35;;;;;;;2.63;1.80;;;21.80;64.10;;;;;;5062022;28;20616;-43
2023/05/05 11:04:22;;;;;;;2.93;1.73;;;21.80;64.20;;;;;;5036564;28;20192;-44
2023/05/05 11:07:10;;;;;;;1.90;1.70;;;21.80;64.40;;;;;;5049471;28;20205;-43
2023/05/05 11:10:03;;;;;;;2.10;1.70;;;21.80;64.50;;;;;;5064501;28;20213;-43
2023/05/05 11:12:58;;;;;;;2.90;1.90;;;21.80;63.80;;;;;;5060178;28;20307;-43
2023/05/05 11:15:34;;;;;;;1.93;1.60;;;21.80;63.20;;;;;;5061263;28;20205;-43
2023/05/05 11:18:06;;;;;;;2.83;1.90;;;21.80;63.60;;;;;;5066367;28;20193;-43
2023/05/05 11:20:57;;;;;;;2.57;1.80;;;21.90;66.10;;;;;;5057698;28;20189;-44
2023/05/05 11:23:27;;;;;;;2.43;1.50;;;21.80;65.60;;;;;;5063661;28;20203;-44
2023/05/05 11:25:59;;;;;;;1.97;1.60;;;21.80;66.50;;;;;;5044115;28;20237;-43
2023/05/05 11:28:30;;;;;;;4.63;1.60;;;21.80;67.10;;;;;;5068999;28;20198;-44
2023/05/05 11:31:02;;;;;;;2.77;1.87;;;21.80;67.50;;;;;;5070842;28;20503;-44
2023/05/05 11:33:33;;;;;;;2.20;1.67;;;21.80;67.90;;;;;;5074311;28;20220;-43
2023/05/05 11:36:10;;;;;;;3.27;1.60;;;21.80;67.90;;;;;;5064004;28;20252;-44
2023/05/05 11:39:09;;;;;;;2.23;1.83;;;21.80;67.80;;;;;;5067734;28;20194;-44
2023/05/05 11:42:08;;;;;;;3.70;1.80;;;21.80;68.30;;;;;;5068215;28;20490;-44
2023/05/05 11:44:40;;;;;;;3.03;2.00;;;21.80;68.30;;;;;;5068243;28;20552;-43
2023/05/05 11:47:25;;;;;;;3.10;1.70;;;21.80;68.80;;;;;;5027472;28;20203;-43
2023/05/05 11:49:54;;;;;;;2.87;2.00;;;21.80;68.80;;;;;;5064358;28;20208;-43
2023/05/05 11:52:27;;;;;;;3.83;1.97;;;21.80;69.30;;;;;;5063606;28;20240;-44
2023/05/05 11:55:00;;;;;;;2.77;1.73;;;21.80;69.60;;;;;;5067619;28;20204;-44
2023/05/05 11:57:31;;;;;;;3.13;1.83;;;21.80;69.40;;;;;;5050802;28;20198;-44
2023/05/05 12:00:07;;;;;;;3.57;1.73;;;21.80;69.50;;;;;;5060462;28;20411;-44
2023/05/05 12:02:44;;;;;;;2.60;2.00;;;21.80;69.30;;;;;;5064720;28;20201;-44
2023/05/05 12:05:20;;;;;;;3.73;2.13;;;21.80;69.60;;;;;;5074668;28;20217;-44
2023/05/05 12:07:57;;;;;;;1.77;1.50;;;21.80;69.70;;;;;;5068635;28;20193;-44
2023/05/05 12:10:29;;;;;;;1.93;1.47;;;21.80;69.80;;;;;;5063450;28;20205;-44
2023/05/05 12:12:58;;;;;;;2.67;1.90;;;21.80;69.90;;;;;;5060111;28;20224;-44
2023/05/05 12:15:31;;;;;;;2.90;1.60;;;21.80;69.90;;;;;;5048097;28;20206;-44
2023/05/05 12:18:04;;;;;;;2.40;2.20;;;21.80;69.70;;;;;;5081317;28;20205;-43
2023/05/05 12:20:35;;;;;;;2.90;2.07;;;21.80;69.80;;;;;;5076834;28;20216;-44
2023/05/05 12:23:07;;;;;;;2.80;1.70;;;21.80;70.10;;;;;;5067124;28;20645;-44
2023/05/05 12:25:39;;;;;;;2.43;1.70;;;21.80;70.10;;;;;;5071997;28;20213;-43
2023/05/05 12:28:10;;;;;;;2.03;1.53;;;21.80;69.90;;;;;;5045949;28;20221;-43
2023/05/05 12:30:55;;;;;;;2.23;1.83;;;21.80;69.90;;;;;;5046556;28;20221;-44
2023/05/05 12:33:25;;;;;;;2.47;1.70;;;21.80;70.00;;;;;;5043424;28;20186;-43
2023/05/05 12:35:55;;;;;;;3.20;1.70;;;21.80;69.70;;;;;;5066445;28;20210;-44
2023/05/05 12:38:27;;;;;;;2.83;1.97;;;21.80;69.80;;;;;;5069568;28;20727;-44
2023/05/05 12:40:59;;;;;;;1.93;1.50;;;21.80;69.70;;;;;;5068590;28;20216;-44
2023/05/05 12:43:34;;;;;;;2.37;1.63;;;21.80;70.00;;;;;;5065304;28;20195;-44
2023/05/05 12:46:10;;;;;;;2.70;1.50;;;21.80;70.00;;;;;;5036219;28;20271;-44
2023/05/05 12:48:45;;;;;;;1.50;1.40;;;21.80;70.10;;;;;;5058614;28;20224;-44
2023/05/05 12:51:31;;;;;;;2.20;1.70;;;21.80;70.10;;;;;;5068302;28;20229;-44
2023/05/05 12:54:12;;;;;;;2.43;1.40;;;21.80;69.90;;;;;;5070299;28;20280;-44
2023/05/05 12:56:45;;;;;;;1.60;1.40;;;21.80;69.80;;;;;;5078609;28;20607;-44
2023/05/05 12:59:26;;;;;;;2.00;1.30;;;21.80;69.80;;;;;;5053415;28;20214;-44
2023/05/05 13:02:00;;;;;;;2.27;1.70;;;21.80;69.60;;;;;;5060469;28;20204;-44
2023/05/05 13:04:32;;;;;;;2.17;1.30;;;21.80;69.60;;;;;;5074655;28;20212;-44
2023/05/05 13:07:12;;;;;;;4.17;1.60;;;21.80;69.60;;;;;;5071094;28;20200;-44
2023/05/05 13:09:42;;;;;;;3.00;1.37;;;21.80;69.60;;;;;;5051620;28;20544;-43
2023/05/05 13:12:13;;;;;;;2.07;1.50;;;21.80;69.70;;;;;;5046711;28;20208;-44
2023/05/05 13:14:45;;;;;;;1.77;1.40;;;21.80;69.70;;;;;;5021086;28;20210;-44
2023/05/05 13:17:13;;;;;;;1.57;1.40;;;21.80;69.80;;;;;;5060426;28;20206;-44
2023/05/05 13:19:47;;;;;;;1.60;1.20;;;21.80;69.50;;;;;;5037193;28;20247;-44
2023/05/05 13:22:17;;;;;;;1.47;1.20;;;21.80;69.10;;;;;;5068309;28;20209;-44
2023/05/05 13:24:49;;;;;;;2.73;1.50;;;21.80;69.30;;;;;;5073238;28;20241;-44